createdAt,value
2023-02-21T00:02:15.851Z,95285.19
2023-02-21T00:05:01.167Z,95290.66
2023-02-21T00:07:46.514Z,95282.16
2023-02-21T00:10:33.887Z,95291.44
2023-02-21T00:13:20.426Z,95291.00
2023-02-21T00:16:05.798Z,95289.41
2023-02-21T00:18:53.269Z,95281.75
2023-02-21T00:21:38.588Z,95281.75
2023-02-21T00:24:24.451Z,95275.88
2023-02-21T00:27:09.820Z,95273.03
2023-02-21T00:29:56.291Z,95275.88
2023-02-21T00:32:41.663Z,95275.69
2023-02-21T00:35:26.823Z,95275.91
2023-02-21T00:38:12.557Z,95272.81
2023-02-21T00:40:57.916Z,95272.66
2023-02-21T00:43:47.306Z,95277.19
2023-02-21T00:46:34.370Z,95266.69
2023-02-21T00:49:19.822Z,95261.50
2023-02-21T00:52:05.046Z,95263.31
2023-02-21T00:54:50.837Z,95264.16
2023-02-21T00:57:36.236Z,95262.91
2023-02-21T01:00:23.489Z,95277.59
2023-02-21T01:03:10.120Z,95263.34
2023-02-21T01:05:55.450Z,95255.69
2023-02-21T01:08:40.798Z,95245.50
2023-02-21T01:11:26.169Z,95259.53
2023-02-21T01:14:11.361Z,95248.31
2023-02-21T01:17:01.977Z,95250.75
2023-02-21T01:19:54.316Z,95257.59
2023-02-21T01:22:39.773Z,95253.03
2023-02-21T01:25:26.069Z,95253.31
2023-02-21T01:28:13.414Z,95240.59
2023-02-21T01:30:58.810Z,95236.22
2023-02-21T01:33:43.833Z,95230.38
2023-02-21T01:36:30.385Z,95236.75
2023-02-21T01:39:15.670Z,95237.97
2023-02-21T01:42:01.025Z,95240.50
2023-02-21T01:44:51.001Z,95233.88
2023-02-21T01:47:36.879Z,95239.69
2023-02-21T01:50:27.192Z,95243.31
2023-02-21T01:53:14.323Z,95232.19
2023-02-21T01:56:01.284Z,95236.06
2023-02-21T01:58:49.662Z,95229.00
2023-02-21T02:01:44.154Z,95227.59
2023-02-21T02:04:29.497Z,95225.34
2023-02-21T02:07:14.812Z,95221.66
2023-02-21T02:10:01.422Z,95215.66
2023-02-21T02:12:46.004Z,95214.44
2023-02-21T02:15:29.672Z,95208.78
2023-02-21T02:18:13.900Z,95212.03
2023-02-21T02:21:25.196Z,95216.44
2023-02-21T02:24:27.066Z,95211.97
2023-02-21T02:27:33.198Z,95215.06
2023-02-21T02:30:45.418Z,95206.31
2023-02-21T02:33:39.373Z,95200.00
2023-02-21T02:36:10.295Z,95201.63
2023-02-21T02:38:42.483Z,95200.91
2023-02-21T02:41:16.926Z,95205.69
2023-02-21T02:43:50.307Z,95196.97
2023-02-21T02:46:22.045Z,95202.47
2023-02-21T02:48:53.429Z,95195.81
2023-02-21T02:51:21.863Z,95189.75
2023-02-21T02:53:48.454Z,95198.66
2023-02-21T02:56:17.027Z,95185.28
2023-02-21T02:58:49.404Z,95190.31
2023-02-21T03:01:38.365Z,95193.44
2023-02-21T03:04:16.355Z,95191.75
2023-02-21T03:06:50.870Z,95196.53
2023-02-21T03:09:25.292Z,95188.22
2023-02-21T03:11:59.885Z,95187.22
2023-02-21T03:14:31.779Z,95190.69
2023-02-21T03:17:03.646Z,95178.16
2023-02-21T03:19:35.182Z,95181.59
2023-02-21T03:22:07.066Z,95184.22
2023-02-21T03:24:35.427Z,95194.56
2023-02-21T03:27:05.865Z,95190.31
2023-02-21T03:29:33.969Z,95183.19
2023-02-21T03:32:11.079Z,95190.41
2023-02-21T03:34:38.694Z,95182.88
2023-02-21T03:37:08.826Z,95178.66
2023-02-21T03:39:35.557Z,95182.91
2023-02-21T03:42:02.282Z,95182.69
2023-02-21T03:44:28.868Z,95186.16
2023-02-21T03:46:55.417Z,95190.44
2023-02-21T03:49:21.979Z,95182.31
2023-02-21T03:51:48.627Z,95191.66
2023-02-21T03:54:16.631Z,95186.88
2023-02-21T03:56:43.299Z,95183.63
2023-02-21T03:59:09.916Z,95189.31
2023-02-21T04:01:36.651Z,95198.38
2023-02-21T04:04:03.324Z,95190.72
2023-02-21T04:06:29.914Z,95190.13
2023-02-21T04:08:56.483Z,95210.66
2023-02-21T04:11:24.638Z,95209.44
2023-02-21T04:13:51.196Z,95205.00
2023-02-21T04:16:17.849Z,95203.53
2023-02-21T04:18:44.464Z,95189.56
2023-02-21T04:21:11.018Z,95186.47
2023-02-21T04:23:37.573Z,95190.78
2023-02-21T04:26:04.370Z,95192.03
2023-02-21T04:28:32.382Z,95191.66
2023-02-21T04:30:58.980Z,95193.50
2023-02-21T04:33:25.615Z,95192.97
2023-02-21T04:35:52.370Z,95189.78
2023-02-21T04:38:18.942Z,95188.78
2023-02-21T04:40:45.514Z,95194.03
2023-02-21T04:43:12.089Z,95198.91
2023-02-21T04:45:39.995Z,95206.38
2023-02-21T04:48:06.637Z,95203.03
2023-02-21T04:50:33.185Z,95202.59
2023-02-21T04:52:59.838Z,95208.00
2023-02-21T04:55:26.455Z,95204.84
2023-02-21T04:57:52.987Z,95210.34
2023-02-21T05:00:19.982Z,95210.19
2023-02-21T05:02:47.863Z,95225.00
2023-02-21T05:05:14.467Z,95226.94
2023-02-21T05:07:42.493Z,95216.88
2023-02-21T05:10:09.719Z,95214.84
2023-02-21T05:12:37.853Z,95212.91
2023-02-21T05:15:05.149Z,95214.78
2023-02-21T05:17:31.828Z,95213.97
2023-02-21T05:20:00.061Z,95212.34
2023-02-21T05:22:26.736Z,95205.56
2023-02-21T05:24:53.345Z,95209.19
2023-02-21T05:27:21.184Z,95216.06
2023-02-21T05:29:48.606Z,95214.97
2023-02-21T05:32:16.601Z,95214.22
2023-02-21T05:34:44.562Z,95214.09
2023-02-21T05:37:12.976Z,95211.09
2023-02-21T05:39:39.576Z,95208.38
2023-02-21T05:42:07.689Z,95207.47
2023-02-21T05:44:34.767Z,95208.41
2023-02-21T05:47:02.385Z,95209.59
2023-02-21T05:49:29.092Z,95201.78
2023-02-21T05:51:55.620Z,95204.22
2023-02-21T05:54:23.553Z,95205.22
2023-02-21T05:56:52.225Z,95201.16
2023-02-21T05:59:20.661Z,95197.72
2023-02-21T06:01:48.149Z,95200.41
2023-02-21T06:04:15.448Z,95201.78
2023-02-21T06:06:42.292Z,95208.41
2023-02-21T06:09:09.515Z,95198.91
2023-02-21T06:11:39.134Z,95201.16
2023-02-21T06:14:07.946Z,95202.75
2023-02-21T06:16:35.800Z,95203.03
2023-02-21T06:19:04.446Z,95194.72
2023-02-21T06:21:31.048Z,95193.44
2023-02-21T06:23:57.861Z,95189.50
2023-02-21T06:26:24.590Z,95190.75
2023-02-21T06:28:52.952Z,95190.56
2023-02-21T06:31:21.286Z,95183.88
2023-02-21T06:33:49.035Z,95187.88
2023-02-21T06:36:18.553Z,95180.00
2023-02-21T06:38:46.223Z,95186.25
2023-02-21T06:41:15.490Z,95187.75
2023-02-21T06:43:42.245Z,95193.28
2023-02-21T06:46:10.160Z,95194.66
2023-02-21T06:48:36.822Z,95211.00
2023-02-21T06:51:05.465Z,95197.69
2023-02-21T06:53:31.999Z,95206.22
2023-02-21T06:55:58.536Z,95200.31
2023-02-21T06:58:25.097Z,95200.28
2023-02-21T07:00:51.661Z,95202.78
2023-02-21T07:03:19.538Z,95210.28
2023-02-21T07:05:46.238Z,95208.66
2023-02-21T07:08:12.788Z,95209.47
2023-02-21T07:10:39.392Z,95219.94
2023-02-21T07:13:05.955Z,95215.41
2023-02-21T07:15:32.553Z,95212.84
2023-02-21T07:17:59.092Z,95214.50
2023-02-21T07:20:27.474Z,95214.22
2023-02-21T07:22:54.002Z,95220.91
2023-02-21T07:25:22.719Z,95219.91
2023-02-21T07:27:49.617Z,95220.34
2023-02-21T07:30:16.985Z,95215.91
2023-02-21T07:32:43.560Z,95219.78
2023-02-21T07:35:10.217Z,95219.00
2023-02-21T07:37:38.218Z,95217.25
2023-02-21T07:40:08.451Z,95219.56
2023-02-21T07:42:34.993Z,95223.78
2023-02-21T07:45:01.618Z,95213.47
2023-02-21T07:47:28.367Z,95211.66
2023-02-21T07:49:54.971Z,95216.22
2023-02-21T07:52:21.967Z,95216.78
2023-02-21T07:54:49.850Z,95210.69
2023-02-21T07:57:17.445Z,95205.88
2023-02-21T07:59:44.449Z,95207.19
2023-02-21T08:02:11.584Z,95216.53
2023-02-21T08:04:38.192Z,95210.84
2023-02-21T08:07:05.136Z,95209.22
2023-02-21T08:09:32.062Z,95207.63
2023-02-21T08:12:00.471Z,95195.72
2023-02-21T08:14:27.981Z,95193.75
2023-02-21T08:16:54.496Z,95192.88
2023-02-21T08:19:21.111Z,95198.28
2023-02-21T08:21:48.885Z,95184.53
2023-02-21T08:24:16.922Z,95177.25
2023-02-21T08:26:45.364Z,95172.03
2023-02-21T08:29:13.839Z,95178.16
2023-02-21T08:31:44.252Z,95173.72
2023-02-21T08:34:11.785Z,95183.13
2023-02-21T08:36:40.414Z,95182.19
2023-02-21T08:39:08.283Z,95184.28
2023-02-21T08:41:36.724Z,95181.19
2023-02-21T08:44:03.291Z,95178.19
2023-02-21T08:46:31.250Z,95184.91
2023-02-21T08:48:57.874Z,95191.63
2023-02-21T08:51:25.651Z,95191.88
2023-02-21T08:53:52.190Z,95197.63
2023-02-21T08:56:19.095Z,95193.81
2023-02-21T08:58:45.629Z,95193.91
2023-02-21T09:01:12.539Z,95195.88
2023-02-21T09:03:40.711Z,95195.31
2023-02-21T09:06:08.656Z,95188.91
2023-02-21T09:08:39.032Z,95190.41
2023-02-21T09:11:05.806Z,95178.03
2023-02-21T09:13:33.118Z,95181.75
2023-02-21T09:16:00.861Z,95187.34
2023-02-21T09:18:28.612Z,95178.69
2023-02-21T09:20:57.808Z,95183.31
2023-02-21T09:23:26.341Z,95175.50
2023-02-21T09:25:52.912Z,95175.38
2023-02-21T09:28:19.997Z,95171.81
2023-02-21T09:30:47.350Z,95170.00
2023-02-21T09:33:15.028Z,95170.72
2023-02-21T09:35:41.709Z,95170.16
2023-02-21T09:38:10.294Z,95157.94
2023-02-21T09:40:42.690Z,95169.16
2023-02-21T09:43:15.143Z,95157.41
2023-02-21T09:45:44.101Z,95152.91
2023-02-21T09:48:15.383Z,95156.47
2023-02-21T09:50:46.062Z,95153.75
2023-02-21T09:53:19.230Z,95144.91
2023-02-21T09:55:46.430Z,95148.06
2023-02-21T09:58:15.150Z,95154.66
2023-02-21T10:00:44.696Z,95157.19
2023-02-21T10:03:31.520Z,95160.59
2023-02-21T10:06:09.033Z,95151.53
2023-02-21T10:08:47.618Z,95153.91
2023-02-21T10:11:36.292Z,95151.66
2023-02-21T10:14:12.990Z,95158.34
2023-02-21T10:16:46.523Z,95140.59
2023-02-21T10:19:18.574Z,95140.22
2023-02-21T10:21:48.541Z,95133.47
2023-02-21T10:24:21.495Z,95129.47
2023-02-21T10:26:55.997Z,95132.09
2023-02-21T10:29:25.237Z,95133.53
2023-02-21T10:31:55.303Z,95129.94
2023-02-21T10:34:24.706Z,95120.69
2023-02-21T10:36:51.922Z,95127.06
2023-02-21T10:39:24.833Z,95129.84
2023-02-21T10:41:52.619Z,95123.72
2023-02-21T10:44:25.025Z,95126.09
2023-02-21T10:47:00.307Z,95118.34
2023-02-21T10:49:32.834Z,95122.03
2023-02-21T10:52:09.771Z,95114.25
2023-02-21T10:54:38.526Z,95115.25
2023-02-21T10:57:08.317Z,95104.38
2023-02-21T10:59:37.568Z,95107.38
2023-02-21T11:02:31.922Z,95101.50
2023-02-21T11:05:13.294Z,95108.44
2023-02-21T11:07:40.381Z,95101.59
2023-02-21T11:10:27.857Z,95097.00
2023-02-21T11:13:14.372Z,95087.53
2023-02-21T11:15:41.423Z,95085.72
2023-02-21T11:18:18.357Z,95087.47
2023-02-21T11:20:45.809Z,95087.22
2023-02-21T11:23:20.781Z,95088.53
2023-02-21T11:25:50.109Z,95078.81
2023-02-21T11:28:22.464Z,95076.78
2023-02-21T11:31:03.567Z,95076.47
2023-02-21T11:33:30.832Z,95067.19
2023-02-21T11:36:10.239Z,95075.94
2023-02-21T11:38:40.766Z,95059.97
2023-02-21T11:41:20.861Z,95060.78
2023-02-21T11:43:48.302Z,95055.56
2023-02-21T11:46:21.440Z,95045.72
2023-02-21T11:48:57.482Z,95050.28
2023-02-21T11:51:31.434Z,95041.03
2023-02-21T11:53:58.242Z,95046.47
2023-02-21T11:56:38.137Z,95030.50
2023-02-21T11:59:13.909Z,95032.94
2023-02-21T12:01:50.720Z,95025.34
2023-02-21T12:04:38.577Z,95025.66
2023-02-21T12:07:16.784Z,95015.78
2023-02-21T12:09:55.774Z,95010.06
2023-02-21T12:12:35.317Z,95009.91
2023-02-21T12:15:12.340Z,95008.84
2023-02-21T12:18:11.087Z,95006.88
2023-02-21T12:20:55.005Z,94998.78
2023-02-21T12:23:32.653Z,94992.22
2023-02-21T12:26:12.233Z,94991.38
2023-02-21T12:28:47.806Z,94986.41
2023-02-21T12:31:26.202Z,94986.00
2023-02-21T12:34:06.672Z,94976.78
2023-02-21T12:36:49.116Z,94974.75
2023-02-21T12:39:28.325Z,94972.81
2023-02-21T12:42:22.009Z,94975.59
2023-02-21T12:44:59.553Z,94967.56
2023-02-21T12:47:30.514Z,94970.91
2023-02-21T12:50:01.669Z,94963.88
2023-02-21T12:52:32.337Z,94960.78
2023-02-21T12:55:04.105Z,94944.34
2023-02-21T12:57:35.431Z,94956.59
2023-02-21T13:00:17.384Z,94950.78
2023-02-21T13:02:55.887Z,94939.34
2023-02-21T13:05:30.164Z,94939.78
2023-02-21T13:08:01.995Z,94935.81
2023-02-21T13:10:34.204Z,94928.66
2023-02-21T13:13:05.460Z,94930.72
2023-02-21T13:15:33.388Z,94925.81
2023-02-21T13:18:02.150Z,94918.22
2023-02-21T13:20:34.806Z,94916.81
2023-02-21T13:23:38.526Z,94912.88
2023-02-21T13:26:24.700Z,94903.06
2023-02-21T13:28:52.519Z,94903.88
2023-02-21T13:31:22.840Z,94906.91
2023-02-21T13:33:52.523Z,94901.94
2023-02-21T13:36:21.777Z,94902.59
2023-02-21T13:38:58.784Z,94895.94
2023-02-21T13:41:28.531Z,94887.56
2023-02-21T13:43:56.699Z,94892.31
2023-02-21T13:46:41.086Z,94887.63
2023-02-21T13:49:44.256Z,94900.13
2023-02-21T13:52:28.705Z,94891.72
2023-02-21T13:55:26.127Z,94881.72
2023-02-21T13:58:33.809Z,94869.44
2023-02-21T14:01:39.914Z,94867.56
2023-02-21T14:04:40.255Z,94863.25
2023-02-21T14:07:06.808Z,94857.75
2023-02-21T14:09:36.947Z,94852.78
2023-02-21T14:12:04.954Z,94849.22
2023-02-21T14:14:39.509Z,94846.06
2023-02-21T14:17:09.488Z,94840.97
2023-02-21T14:19:41.391Z,94836.56
2023-02-21T14:22:14.507Z,94845.72
2023-02-21T14:24:45.181Z,94844.28
2023-02-21T14:27:34.834Z,94841.75
2023-02-21T14:30:30.222Z,94834.06
2023-02-21T14:33:19.327Z,94842.31
2023-02-21T14:35:55.635Z,94830.47
2023-02-21T14:38:24.851Z,94826.72
2023-02-21T14:41:02.703Z,94822.97
2023-02-21T14:43:54.533Z,94814.03
2023-02-21T14:47:00.054Z,94811.91
2023-02-21T14:50:16.099Z,94816.94
2023-02-21T14:53:01.650Z,94816.56
2023-02-21T14:56:03.298Z,94815.56
2023-02-21T14:58:58.278Z,94806.72
2023-02-21T15:01:43.414Z,94793.00
2023-02-21T15:04:18.489Z,94791.94
2023-02-21T15:06:57.614Z,94797.28
2023-02-21T15:09:24.143Z,94790.94
2023-02-21T15:11:51.224Z,94796.72
2023-02-21T15:14:23.508Z,94785.28
2023-02-21T15:16:54.963Z,94780.34
2023-02-21T15:19:28.985Z,94773.34
2023-02-21T15:22:15.757Z,94778.06
2023-02-21T15:24:42.752Z,94779.41
2023-02-21T15:27:10.750Z,94778.53
2023-02-21T15:29:37.691Z,94775.44
2023-02-21T15:32:06.456Z,94768.97
2023-02-21T15:34:38.390Z,94771.06
2023-02-21T15:37:17.029Z,94764.78
2023-02-21T15:39:51.562Z,94767.72
2023-02-21T15:42:19.023Z,94772.06
2023-02-21T15:44:50.314Z,94772.31
2023-02-21T15:47:21.719Z,94762.09
2023-02-21T15:50:01.627Z,94766.78
2023-02-21T15:52:30.751Z,94767.91
2023-02-21T15:55:28.799Z,94759.88
2023-02-21T15:58:00.197Z,94756.44
2023-02-21T16:00:29.349Z,94754.84
2023-02-21T16:03:29.489Z,94752.94
2023-02-21T16:06:10.266Z,94754.47
2023-02-21T16:08:40.592Z,94754.84
2023-02-21T16:11:07.134Z,94748.84
2023-02-21T16:13:37.795Z,94745.75
2023-02-21T16:16:05.568Z,94751.13
2023-02-21T16:18:33.641Z,94746.34
2023-02-21T16:21:02.173Z,94750.69
2023-02-21T16:23:32.358Z,94754.44
2023-02-21T16:26:01.784Z,94744.34
2023-02-21T16:28:28.986Z,94757.69
2023-02-21T16:30:58.854Z,94742.41
2023-02-21T16:33:26.604Z,94749.31
2023-02-21T16:35:55.004Z,94750.91
2023-02-21T16:38:23.572Z,94747.22
2023-02-21T16:40:50.789Z,94749.88
2023-02-21T16:43:21.468Z,94746.06
2023-02-21T16:45:49.365Z,94751.94
2023-02-21T16:48:20.825Z,94747.34
2023-02-21T16:50:48.988Z,94746.41
2023-02-21T16:53:18.091Z,94748.84
2023-02-21T16:55:45.253Z,94746.19
2023-02-21T16:58:23.813Z,94745.91
2023-02-21T17:00:52.177Z,94749.19
2023-02-21T17:03:19.362Z,94750.22
2023-02-21T17:05:46.699Z,94748.16
2023-02-21T17:08:13.676Z,94749.28
2023-02-21T17:10:41.634Z,94753.44
2023-02-21T17:13:08.199Z,94753.66
2023-02-21T17:15:34.965Z,94752.97
2023-02-21T17:18:02.115Z,94759.41
2023-02-21T17:20:28.736Z,94758.38
2023-02-21T17:22:55.910Z,94759.63
2023-02-21T17:25:22.935Z,94759.63
2023-02-21T17:27:51.730Z,94757.41
2023-02-21T17:30:19.665Z,94753.50
2023-02-21T17:32:47.027Z,94759.28
2023-02-21T17:35:15.251Z,94756.06
2023-02-21T17:37:42.180Z,94751.13
2023-02-21T17:40:10.188Z,94755.59
2023-02-21T17:42:36.809Z,94756.38
2023-02-21T17:45:05.863Z,94763.34
2023-02-21T17:47:32.885Z,94758.78
2023-02-21T17:50:02.496Z,94775.28
2023-02-21T17:52:30.068Z,94773.69
2023-02-21T17:54:56.824Z,94765.97
2023-02-21T17:57:23.447Z,94774.97
2023-02-21T17:59:50.501Z,94764.16
2023-02-21T18:02:18.929Z,94771.53
2023-02-21T18:04:48.618Z,94776.41
2023-02-21T18:07:15.010Z,94772.91
2023-02-21T18:09:41.545Z,94775.44
2023-02-21T18:12:08.107Z,94774.41
2023-02-21T18:14:34.706Z,94780.72
2023-02-21T18:17:01.284Z,94787.91
2023-02-21T18:19:29.587Z,94787.81
2023-02-21T18:21:56.173Z,94785.44
2023-02-21T18:24:23.027Z,94779.88
2023-02-21T18:26:49.996Z,94776.13
2023-02-21T18:29:16.723Z,94782.03
2023-02-21T18:31:43.348Z,94779.97
2023-02-21T18:34:09.927Z,94783.31
2023-02-21T18:36:40.833Z,94775.56
2023-02-21T18:39:07.547Z,94774.75
2023-02-21T18:41:34.720Z,94776.28
2023-02-21T18:44:01.748Z,94767.13
2023-02-21T18:46:28.519Z,94773.38
2023-02-21T18:48:55.160Z,94774.69
2023-02-21T18:51:21.851Z,94774.97
2023-02-21T18:53:50.176Z,94771.66
2023-02-21T18:56:21.150Z,94766.53
2023-02-21T18:58:49.398Z,94762.47
2023-02-21T19:01:18.819Z,94763.53
2023-02-21T19:03:45.532Z,94772.19
2023-02-21T19:06:15.776Z,94758.59
2023-02-21T19:08:42.369Z,94761.66
2023-02-21T19:11:10.272Z,94763.94
2023-02-21T19:13:36.814Z,94765.56
2023-02-21T19:16:03.663Z,94767.16
2023-02-21T19:18:30.616Z,94760.06
2023-02-21T19:20:57.396Z,94768.28
2023-02-21T19:23:24.597Z,94768.22
2023-02-21T19:25:51.158Z,94769.53
2023-02-21T19:28:19.056Z,94763.78
2023-02-21T19:30:45.723Z,94763.75
2023-02-21T19:33:12.333Z,94769.97
2023-02-21T19:35:39.597Z,94770.81
2023-02-21T19:38:07.941Z,94761.84
2023-02-21T19:40:35.258Z,94771.19
2023-02-21T19:43:02.189Z,94777.84
2023-02-21T19:45:30.523Z,94781.16
2023-02-21T19:47:57.165Z,94780.41
2023-02-21T19:50:23.749Z,94783.06
2023-02-21T19:52:54.470Z,94785.91
2023-02-21T19:55:21.185Z,94775.31
2023-02-21T19:57:47.757Z,94775.13
2023-02-21T20:00:14.812Z,94772.69
2023-02-21T20:02:44.539Z,94780.94
2023-02-21T20:05:13.921Z,94779.03
2023-02-21T20:07:40.680Z,94769.09
2023-02-21T20:10:08.101Z,94777.53
2023-02-21T20:12:34.741Z,94776.63
2023-02-21T20:15:01.631Z,94766.44
2023-02-21T20:17:28.214Z,94770.41
2023-02-21T20:19:56.420Z,94768.41
2023-02-21T20:22:23.011Z,94766.34
2023-02-21T20:24:49.667Z,94767.59
2023-02-21T20:27:16.698Z,94764.59
2023-02-21T20:29:43.282Z,94761.47
2023-02-21T20:32:09.929Z,94762.56
2023-02-21T20:34:38.954Z,94759.44
2023-02-21T20:37:06.846Z,94771.41
2023-02-21T20:39:34.821Z,94766.44
2023-02-21T20:42:02.721Z,94765.47
2023-02-21T20:44:34.117Z,94764.59
2023-02-21T20:47:01.129Z,94762.69
2023-02-21T20:49:28.027Z,94777.63
2023-02-21T20:51:54.604Z,94761.00
2023-02-21T20:54:23.211Z,94772.59
2023-02-21T20:56:51.444Z,94764.44
2023-02-21T20:59:19.920Z,94770.28
2023-02-21T21:01:49.756Z,94770.44
2023-02-21T21:04:18.551Z,94776.16
2023-02-21T21:06:46.014Z,94772.72
2023-02-21T21:09:17.852Z,94770.06
2023-02-21T21:11:46.374Z,94768.09
2023-02-21T21:14:16.393Z,94772.94
2023-02-21T21:16:43.403Z,94770.66
2023-02-21T21:19:10.265Z,94772.78
2023-02-21T21:21:37.801Z,94774.78
2023-02-21T21:24:06.989Z,94775.00
2023-02-21T21:26:33.827Z,94771.91
2023-02-21T21:29:01.943Z,94772.56
2023-02-21T21:31:28.554Z,94778.66
2023-02-21T21:33:56.315Z,94768.69
2023-02-21T21:36:23.163Z,94771.91
2023-02-21T21:38:49.679Z,94771.91
2023-02-21T21:41:16.491Z,94778.19
2023-02-21T21:43:45.255Z,94768.00
2023-02-21T21:46:13.800Z,94780.59
2023-02-21T21:48:42.484Z,94764.09
2023-02-21T21:51:09.487Z,94758.72
2023-02-21T21:53:37.252Z,94758.50
2023-02-21T21:56:05.600Z,94763.66
2023-02-21T21:58:35.810Z,94760.56
2023-02-21T22:01:05.334Z,94754.75
2023-02-21T22:03:34.551Z,94755.91
2023-02-21T22:06:01.109Z,94753.38
2023-02-21T22:08:28.461Z,94760.41
2023-02-21T22:10:55.253Z,94768.19
2023-02-21T22:13:22.177Z,94765.84
2023-02-21T22:15:49.810Z,94763.63
2023-02-21T22:18:18.217Z,94750.28
2023-02-21T22:20:49.716Z,94747.72
2023-02-21T22:23:17.834Z,94750.88
2023-02-21T22:25:44.386Z,94751.47
2023-02-21T22:28:13.111Z,94746.66
2023-02-21T22:30:40.537Z,94742.34
2023-02-21T22:33:13.262Z,94744.44
2023-02-21T22:35:40.516Z,94738.78
2023-02-21T22:38:14.117Z,94738.78
2023-02-21T22:40:42.002Z,94738.97
2023-02-21T22:43:09.439Z,94749.84
2023-02-21T22:45:37.146Z,94749.84
2023-02-21T22:48:05.752Z,94746.97
2023-02-21T22:50:36.788Z,94740.56
2023-02-21T22:53:08.038Z,94734.69
2023-02-21T22:55:37.078Z,94734.00
2023-02-21T22:58:06.287Z,94731.75
2023-02-21T23:00:34.586Z,94732.72
2023-02-21T23:03:03.021Z,94725.84
2023-02-21T23:05:29.688Z,94736.16
2023-02-21T23:08:00.218Z,94720.94
2023-02-21T23:10:28.501Z,94721.59
2023-02-21T23:13:00.721Z,94719.47
2023-02-21T23:15:27.904Z,94716.69
2023-02-21T23:17:54.786Z,94710.81
2023-02-21T23:20:26.566Z,94702.25
2023-02-21T23:22:54.494Z,94707.69
2023-02-21T23:25:25.571Z,94713.91
2023-02-21T23:27:55.008Z,94708.34
2023-02-21T23:30:27.755Z,94696.75
2023-02-21T23:32:55.546Z,94694.00
2023-02-21T23:35:22.507Z,94688.59
2023-02-21T23:37:49.156Z,94688.44
2023-02-21T23:40:17.919Z,94692.47
2023-02-21T23:42:45.961Z,94685.75
2023-02-21T23:45:13.695Z,94694.13
2023-02-21T23:47:42.050Z,94683.22
2023-02-21T23:50:17.106Z,94672.50
2023-02-21T23:52:47.695Z,94676.38
2023-02-21T23:55:15.585Z,94677.69
2023-02-21T23:57:43.659Z,94675.25
